sensor_id;sensor_type;location;lat;lon;timestamp;pressure;altitude;pressure_sealevel;temperature;humidity
51439;BME280;38816;51.142;-0.974;2023-04-21T00:02:00;100121.44;;;5.57;100.00
51439;BME280;38816;51.142;-0.974;2023-04-21T00:04:29;100125.72;;;5.58;100.00
51439;BME280;38816;51.142;-0.974;2023-04-21T00:06:54;100130.91;;;5.59;100.00
51439;BME280;38816;51.142;-0.974;2023-04-21T00:09:20;100125.56;;;5.53;100.00
51439;BME280;38816;51.142;-0.974;2023-04-21T00:11:46;100127.94;;;5.49;100.00
51439;BME280;38816;51.142;-0.974;2023-04-21T00:14:11;100135.13;;;5.59;100.00
51439;BME280;38816;51.142;-0.974;2023-04-21T00:16:37;100130.91;;;5.59;100.00
51439;BME280;38816;51.142;-0.974;2023-04-21T00:19:02;100117.38;;;5.62;100.00
51439;BME280;38816;51.142;-0.974;2023-04-21T00:21:31;100113.91;;;5.60;100.00
51439;BME280;38816;51.142;-0.974;2023-04-21T00:23:57;100104.72;;;5.65;100.00
51439;BME280;38816;51.142;-0.974;2023-04-21T00:26:22;100112.41;;;5.67;100.00
51439;BME280;38816;51.142;-0.974;2023-04-21T00:28:48;100097.97;;;5.67;100.00
51439;BME280;38816;51.142;-0.974;2023-04-21T00:31:14;100094.66;;;5.68;100.00
51439;BME280;38816;51.142;-0.974;2023-04-21T00:33:39;100091.41;;;5.74;100.00
51439;BME280;38816;51.142;-0.974;2023-04-21T00:36:05;100087.06;;;5.71;100.00
51439;BME280;38816;51.142;-0.974;2023-04-21T00:38:30;100077.38;;;5.61;100.00
51439;BME280;38816;51.142;-0.974;2023-04-21T00:40:55;100097.91;;;5.64;100.00
51439;BME280;38816;51.142;-0.974;2023-04-21T00:43:21;100086.59;;;5.57;100.00
51439;BME280;38816;51.142;-0.974;2023-04-21T00:45:46;100099.44;;;5.59;100.00
51439;BME280;38816;51.142;-0.974;2023-04-21T00:48:12;100096.19;;;5.63;100.00
51439;BME280;38816;51.142;-0.974;2023-04-21T00:50:37;100083.34;;;5.62;100.00
51439;BME280;38816;51.142;-0.974;2023-04-21T00:53:03;100086.56;;;5.56;100.00
51439;BME280;38816;51.142;-0.974;2023-04-21T00:55:28;100092.53;;;5.56;100.00
51439;BME280;38816;51.142;-0.974;2023-04-21T00:57:55;100079.31;;;5.43;100.00
51439;BME280;38816;51.142;-0.974;2023-04-21T01:00:21;100088.50;;;5.38;100.00
51439;BME280;38816;51.142;-0.974;2023-04-21T01:02:47;100093.59;;;5.38;100.00
51439;BME280;38816;51.142;-0.974;2023-04-21T01:05:12;100088.50;;;5.38;100.00
51439;BME280;38816;51.142;-0.974;2023-04-21T01:07:40;100074.22;;;5.43;100.00
51439;BME280;38816;51.142;-0.974;2023-04-21T01:10:06;100083.19;;;5.57;100.00
51439;BME280;38816;51.142;-0.974;2023-04-21T01:12:32;100080.66;;;5.57;100.00
51439;BME280;38816;51.142;-0.974;2023-04-21T01:14:57;100080.13;;;5.67;100.00
51439;BME280;38816;51.142;-0.974;2023-04-21T01:17:23;100072.47;;;5.67;100.00
51439;BME280;38816;51.142;-0.974;2023-04-21T01:19:49;100068.28;;;5.68;100.00
51439;BME280;38816;51.142;-0.974;2023-04-21T01:22:15;100070.09;;;5.72;100.00
51439;BME280;38816;51.142;-0.974;2023-04-21T01:24:45;100063.47;;;5.77;100.00
51439;BME280;38816;51.142;-0.974;2023-04-21T01:27:14;100058.31;;;5.75;100.00
51439;BME280;38816;51.142;-0.974;2023-04-21T01:29:41;100062.50;;;5.73;100.00
51439;BME280;38816;51.142;-0.974;2023-04-21T01:32:11;100054.00;;;5.73;100.00
51439;BME280;38816;51.142;-0.974;2023-04-21T01:34:37;100051.13;;;5.64;100.00
51439;BME280;38816;51.142;-0.974;2023-04-21T01:37:06;100057.28;;;5.70;100.00
51439;BME280;38816;51.142;-0.974;2023-04-21T01:39:32;100049.59;;;5.69;100.00
51439;BME280;38816;51.142;-0.974;2023-04-21T01:41:58;100056.63;;;5.76;100.00
51439;BME280;38816;51.142;-0.974;2023-04-21T01:44:24;100039.41;;;5.69;100.00
51439;BME280;38816;51.142;-0.974;2023-04-21T01:46:50;100037.72;;;5.69;100.00
51439;BME280;38816;51.142;-0.974;2023-04-21T01:49:16;100038.63;;;5.71;100.00
51439;BME280;38816;51.142;-0.974;2023-04-21T01:51:41;100039.66;;;5.76;100.00
51439;BME280;38816;51.142;-0.974;2023-04-21T01:54:07;100045.66;;;5.78;100.00
51439;BME280;38816;51.142;-0.974;2023-04-21T01:56:33;100044.13;;;5.83;100.00
51439;BME280;38816;51.142;-0.974;2023-04-21T01:58:59;100040.84;;;5.88;100.00
51439;BME280;38816;51.142;-0.974;2023-04-21T02:01:24;100047.03;;;5.94;100.00
51439;BME280;38816;51.142;-0.974;2023-04-21T02:03:50;100046.13;;;5.92;100.00
51439;BME280;38816;51.142;-0.974;2023-04-21T02:06:15;100035.78;;;5.89;100.00
51439;BME280;38816;51.142;-0.974;2023-04-21T02:08:42;100040.28;;;5.95;100.00
51439;BME280;38816;51.142;-0.974;2023-04-21T02:11:07;100042.84;;;5.95;100.00
51439;BME280;38816;51.142;-0.974;2023-04-21T02:13:32;100021.28;;;5.87;100.00
51439;BME280;38816;51.142;-0.974;2023-04-21T02:15:58;100016.50;;;5.96;100.00
51439;BME280;38816;51.142;-0.974;2023-04-21T02:18:23;100020.34;;;5.84;100.00
51439;BME280;38816;51.142;-0.974;2023-04-21T02:20:50;100006.66;;;5.81;100.00
51439;BME280;38816;51.142;-0.974;2023-04-21T02:23:15;100010.66;;;5.74;100.00
51439;BME280;38816;51.142;-0.974;2023-04-21T02:25:40;100012.09;;;5.66;100.00
51439;BME280;38816;51.142;-0.974;2023-04-21T02:28:06;99997.47;;;5.61;100.00
51439;BME280;38816;51.142;-0.974;2023-04-21T02:30:33;100004.22;;;5.58;100.00
51439;BME280;38816;51.142;-0.974;2023-04-21T02:32:58;99998.97;;;5.54;100.00
51439;BME280;38816;51.142;-0.974;2023-04-21T02:35:23;100003.47;;;5.63;100.00
51439;BME280;38816;51.142;-0.974;2023-04-21T02:37:49;99995.75;;;5.59;100.00
51439;BME280;38816;51.142;-0.974;2023-04-21T02:40:14;99994.88;;;5.59;100.00
51439;BME280;38816;51.142;-0.974;2023-04-21T02:42:40;100006.13;;;5.66;100.00
51439;BME280;38816;51.142;-0.974;2023-04-21T02:45:05;99993.13;;;5.58;100.00
51439;BME280;38816;51.142;-0.974;2023-04-21T02:47:31;99979.53;;;5.57;100.00
51439;BME280;38816;51.142;-0.974;2023-04-21T02:49:56;99999.47;;;5.69;100.00
51439;BME280;38816;51.142;-0.974;2023-04-21T02:52:22;100007.28;;;5.75;100.00
51439;BME280;38816;51.142;-0.974;2023-04-21T02:54:47;99973.78;;;5.63;100.00
51439;BME280;38816;51.142;-0.974;2023-04-21T02:57:12;99983.28;;;5.69;100.00
51439;BME280;38816;51.142;-0.974;2023-04-21T02:59:38;99985.13;;;5.73;100.00
51439;BME280;38816;51.142;-0.974;2023-04-21T03:02:03;99978.28;;;5.72;100.00
51439;BME280;38816;51.142;-0.974;2023-04-21T03:04:29;99968.69;;;5.63;100.00
51439;BME280;38816;51.142;-0.974;2023-04-21T03:06:56;99980.81;;;5.72;100.00
51439;BME280;38816;51.142;-0.974;2023-04-21T03:09:21;99971.56;;;5.74;100.00
51439;BME280;38816;51.142;-0.974;2023-04-21T03:11:47;99972.41;;;5.74;100.00
51439;BME280;38816;51.142;-0.974;2023-04-21T03:14:12;99970.69;;;5.73;100.00
51439;BME280;38816;51.142;-0.974;2023-04-21T03:16:38;99972.44;;;5.76;100.00
51439;BME280;38816;51.142;-0.974;2023-04-21T03:19:03;99977.50;;;5.74;100.00
51439;BME280;38816;51.142;-0.974;2023-04-21T03:21:28;99957.78;;;5.69;100.00
51439;BME280;38816;51.142;-0.974;2023-04-21T03:23:54;99966.41;;;5.72;100.00
51439;BME280;38816;51.142;-0.974;2023-04-21T03:26:19;99969.81;;;5.73;100.00
51439;BME280;38816;51.142;-0.974;2023-04-21T03:28:45;99967.31;;;5.74;100.00
51439;BME280;38816;51.142;-0.974;2023-04-21T03:31:10;99968.25;;;5.76;100.00
51439;BME280;38816;51.142;-0.974;2023-04-21T03:33:35;99961.50;;;5.78;100.00
51439;BME280;38816;51.142;-0.974;2023-04-21T03:36:01;99961.66;;;5.84;100.00
51439;BME280;38816;51.142;-0.974;2023-04-21T03:38:27;99955.00;;;5.88;100.00
51439;BME280;38816;51.142;-0.974;2023-04-21T03:40:53;99949.78;;;5.85;100.00
51439;BME280;38816;51.142;-0.974;2023-04-21T03:43:18;99936.13;;;5.83;100.00
51439;BME280;38816;51.142;-0.974;2023-04-21T03:45:43;99951.84;;;5.95;100.00
51439;BME280;38816;51.142;-0.974;2023-04-21T03:48:09;99942.41;;;5.93;100.00
51439;BME280;38816;51.142;-0.974;2023-04-21T03:50:34;99942.25;;;5.90;100.00
51439;BME280;38816;51.142;-0.974;2023-04-21T03:53:00;99932.72;;;5.82;100.00
51439;BME280;38816;51.142;-0.974;2023-04-21T03:55:25;99935.16;;;5.79;100.00
51439;BME280;38816;51.142;-0.974;2023-04-21T03:57:50;99923.97;;;5.74;100.00
51439;BME280;38816;51.142;-0.974;2023-04-21T04:03:38;99906.22;;;5.77;100.00
51439;BME280;38816;51.142;-0.974;2023-04-21T04:06:03;99914.72;;;5.78;100.00
51439;BME280;38816;51.142;-0.974;2023-04-21T04:08:29;99909.59;;;5.76;100.00
51439;BME280;38816;51.142;-0.974;2023-04-21T04:10:55;99901.97;;;5.78;100.00
51439;BME280;38816;51.142;-0.974;2023-04-21T04:13:23;99894.34;;;5.79;100.00
51439;BME280;38816;51.142;-0.974;2023-04-21T04:15:50;99895.19;;;5.78;100.00
51439;BME280;38816;51.142;-0.974;2023-04-21T04:18:16;99891.72;;;5.76;100.00
51439;BME280;38816;51.142;-0.974;2023-04-21T04:20:41;99885.69;;;5.74;100.00
51439;BME280;38816;51.142;-0.974;2023-04-21T04:23:07;99883.16;;;5.74;100.00
51439;BME280;38816;51.142;-0.974;2023-04-21T04:25:32;99874.41;;;5.66;100.00
51439;BME280;38816;51.142;-0.974;2023-04-21T04:27:58;99877.69;;;5.62;100.00
51439;BME280;38816;51.142;-0.974;2023-04-21T04:30:23;99883.72;;;5.64;100.00
51439;BME280;38816;51.142;-0.974;2023-04-21T04:32:52;99883.72;;;5.64;100.00
51439;BME280;38816;51.142;-0.974;2023-04-21T04:35:17;99889.66;;;5.65;100.00
51439;BME280;38816;51.142;-0.974;2023-04-21T04:37:46;99884.53;;;5.63;100.00
51439;BME280;38816;51.142;-0.974;2023-04-21T04:40:11;99873.56;;;5.67;100.00
51439;BME280;38816;51.142;-0.974;2023-04-21T04:42:37;99864.63;;;5.51;100.00
51439;BME280;38816;51.142;-0.974;2023-04-21T04:45:05;99868.19;;;5.58;100.00
51439;BME280;38816;51.142;-0.974;2023-04-21T04:47:32;99868.41;;;5.64;100.00
51439;BME280;38816;51.142;-0.974;2023-04-21T04:49:57;99858.78;;;5.55;100.00
51439;BME280;38816;51.142;-0.974;2023-04-21T04:52:23;99864.13;;;5.63;100.00
51439;BME280;38816;51.142;-0.974;2023-04-21T04:54:48;99863.25;;;5.63;100.00
51439;BME280;38816;51.142;-0.974;2023-04-21T04:57:14;99843.53;;;5.57;100.00
51439;BME280;38816;51.142;-0.974;2023-04-21T04:59:39;99849.69;;;5.64;100.00
51439;BME280;38816;51.142;-0.974;2023-04-21T05:02:06;99849.63;;;5.62;100.00
51439;BME280;38816;51.142;-0.974;2023-04-21T05:04:33;99856.38;;;5.60;100.00
51439;BME280;38816;51.142;-0.974;2023-04-21T05:06:58;99856.56;;;5.66;100.00
51439;BME280;38816;51.142;-0.974;2023-04-21T05:09:23;99859.22;;;5.69;100.00
51439;BME280;38816;51.142;-0.974;2023-04-21T05:11:50;99853.19;;;5.67;100.00
51439;BME280;38816;51.142;-0.974;2023-04-21T05:14:15;99851.56;;;5.69;100.00
51439;BME280;38816;51.142;-0.974;2023-04-21T05:16:42;99846.19;;;5.60;100.00
51439;BME280;38816;51.142;-0.974;2023-04-21T05:19:07;99843.59;;;5.58;100.00
51439;BME280;38816;51.142;-0.974;2023-04-21T05:21:33;99842.69;;;5.58;100.00
51439;BME280;38816;51.142;-0.974;2023-04-21T05:23:58;99841.91;;;5.59;100.00
51439;BME280;38816;51.142;-0.974;2023-04-21T05:26:25;99836.88;;;5.62;100.00
51439;BME280;38816;51.142;-0.974;2023-04-21T05:28:52;99832.59;;;5.61;100.00
51439;BME280;38816;51.142;-0.974;2023-04-21T05:31:17;99832.78;;;5.67;100.00
51439;BME280;38816;51.142;-0.974;2023-04-21T05:33:43;99846.56;;;5.72;100.00
51439;BME280;38816;51.142;-0.974;2023-04-21T05:36:09;99848.22;;;5.72;100.00
51439;BME280;38816;51.142;-0.974;2023-04-21T05:38:37;99839.53;;;5.65;100.00
51439;BME280;38816;51.142;-0.974;2023-04-21T05:41:04;99826.06;;;5.69;100.00
51439;BME280;38816;51.142;-0.974;2023-04-21T05:43:30;99839.78;;;5.74;100.00
51439;BME280;38816;51.142;-0.974;2023-04-21T05:46:01;99831.88;;;5.65;100.00
51439;BME280;38816;51.142;-0.974;2023-04-21T05:48:27;99840.53;;;5.70;100.00
51439;BME280;38816;51.142;-0.974;2023-04-21T05:50:55;99844.91;;;5.74;100.00
51439;BME280;38816;51.142;-0.974;2023-04-21T05:53:21;99840.72;;;5.76;100.00
51439;BME280;38816;51.142;-0.974;2023-04-21T05:55:48;99833.13;;;5.79;100.00
51439;BME280;38816;51.142;-0.974;2023-04-21T05:58:13;99832.06;;;5.71;100.00
51439;BME280;38816;51.142;-0.974;2023-04-21T06:00:39;99844.94;;;5.76;100.00
51439;BME280;38816;51.142;-0.974;2023-04-21T06:03:04;99849.13;;;5.74;100.00
51439;BME280;38816;51.142;-0.974;2023-04-21T06:05:31;99848.41;;;5.78;100.00
51439;BME280;38816;51.142;-0.974;2023-04-21T06:07:56;99846.75;;;5.80;100.00
51439;BME280;38816;51.142;-0.974;2023-04-21T06:10:21;99852.91;;;5.87;100.00
51439;BME280;38816;51.142;-0.974;2023-04-21T06:12:47;99845.25;;;5.87;100.00
51439;BME280;38816;51.142;-0.974;2023-04-21T06:15:12;99828.13;;;5.82;100.00
51439;BME280;38816;51.142;-0.974;2023-04-21T06:17:37;99827.34;;;5.85;100.00
51439;BME280;38816;51.142;-0.974;2023-04-21T06:20:03;99825.75;;;5.89;100.00
51439;BME280;38816;51.142;-0.974;2023-04-21T06:22:28;99828.47;;;5.93;100.00
51439;BME280;38816;51.142;-0.974;2023-04-21T06:24:54;99830.09;;;5.91;100.00
51439;BME280;38816;51.142;-0.974;2023-04-21T06:27:19;99817.19;;;5.87;100.00
51439;BME280;38816;51.142;-0.974;2023-04-21T06:29:45;99819.09;;;5.92;100.00
51439;BME280;38816;51.142;-0.974;2023-04-21T06:32:10;99814.84;;;5.93;100.00
51439;BME280;38816;51.142;-0.974;2023-04-21T06:34:37;99793.50;;;5.91;100.00
51439;BME280;38816;51.142;-0.974;2023-04-21T06:37:02;99803.06;;;5.96;100.00
51439;BME280;38816;51.142;-0.974;2023-04-21T06:39:27;99792.88;;;5.98;100.00
51439;BME280;38816;51.142;-0.974;2023-04-21T06:41:53;99784.59;;;6.05;100.00
51439;BME280;38816;51.142;-0.974;2023-04-21T06:44:19;99779.59;;;6.09;100.00
51439;BME280;38816;51.142;-0.974;2023-04-21T06:46:44;99784.22;;;6.23;100.00
51439;BME280;38816;51.142;-0.974;2023-04-21T06:49:11;99781.94;;;6.33;100.00
51439;BME280;38816;51.142;-0.974;2023-04-21T06:51:36;99781.31;;;6.42;100.00
51439;BME280;38816;51.142;-0.974;2023-04-21T06:54:02;99778.13;;;6.51;100.00
51439;BME280;38816;51.142;-0.974;2023-04-21T06:56:28;99774.84;;;6.56;100.00
51439;BME280;38816;51.142;-0.974;2023-04-21T06:58:54;99775.78;;;6.60;100.00
51439;BME280;38816;51.142;-0.974;2023-04-21T07:01:19;99778.34;;;6.60;100.00
51439;BME280;38816;51.142;-0.974;2023-04-21T07:03:45;99768.03;;;6.57;100.00
51439;BME280;38816;51.142;-0.974;2023-04-21T07:06:10;99769.91;;;6.63;100.00
51439;BME280;38816;51.142;-0.974;2023-04-21T07:08:36;99762.38;;;6.69;100.00
51439;BME280;38816;51.142;-0.974;2023-04-21T07:11:02;99753.25;;;6.78;100.00
51439;BME280;38816;51.142;-0.974;2023-04-21T07:13:27;99745.91;;;6.92;100.00
51439;BME280;38816;51.142;-0.974;2023-04-21T07:15:53;99748.63;;;7.00;100.00
51439;BME280;38816;51.142;-0.974;2023-04-21T07:18:18;99749.53;;;7.02;100.00
51439;BME280;38816;51.142;-0.974;2023-04-21T07:20:44;99748.84;;;7.09;100.00
51439;BME280;38816;51.142;-0.974;2023-04-21T07:23:09;99747.47;;;7.25;100.00
51439;BME280;38816;51.142;-0.974;2023-04-21T07:25:35;99739.97;;;7.32;100.00
51439;BME280;38816;51.142;-0.974;2023-04-21T07:28:01;99734.38;;;7.50;100.00
51439;BME280;38816;51.142;-0.974;2023-04-21T07:30:27;99735.38;;;7.57;100.00
51439;BME280;38816;51.142;-0.974;2023-04-21T07:32:53;99728.53;;;7.56;100.00
51439;BME280;38816;51.142;-0.974;2023-04-21T07:35:19;99715.03;;;7.63;100.00
51439;BME280;38816;51.142;-0.974;2023-04-21T07:37:44;99728.84;;;7.71;100.00
51439;BME280;38816;51.142;-0.974;2023-04-21T07:40:10;99717.75;;;7.71;100.00
51439;BME280;38816;51.142;-0.974;2023-04-21T07:42:35;99712.66;;;7.72;100.00
51439;BME280;38816;51.142;-0.974;2023-04-21T07:45:01;99721.19;;;7.71;100.00
51439;BME280;38816;51.142;-0.974;2023-04-21T07:47:27;99712.41;;;7.60;100.00
51439;BME280;38816;51.142;-0.974;2023-04-21T07:49:52;99708.06;;;7.56;100.00
51439;BME280;38816;51.142;-0.974;2023-04-21T07:52:18;99711.47;;;7.55;100.00
51439;BME280;38816;51.142;-0.974;2023-04-21T07:54:43;99711.00;;;7.33;100.00
51439;BME280;38816;51.142;-0.974;2023-04-21T07:57:09;99718.50;;;7.24;100.00
51439;BME280;38816;51.142;-0.974;2023-04-21T07:59:34;99721.91;;;7.25;100.00
51439;BME280;38816;51.142;-0.974;2023-04-21T08:02:00;99714.34;;;7.29;100.00
51439;BME280;38816;51.142;-0.974;2023-04-21T08:04:26;99709.22;;;7.29;100.00
51439;BME280;38816;51.142;-0.974;2023-04-21T08:06:51;99711.91;;;7.34;100.00
51439;BME280;38816;51.142;-0.974;2023-04-21T08:09:17;99702.59;;;7.38;100.00
51439;BME280;38816;51.142;-0.974;2023-04-21T08:11:42;99718.00;;;7.41;100.00
51439;BME280;38816;51.142;-0.974;2023-04-21T08:14:08;99714.56;;;7.39;100.00
51439;BME280;38816;51.142;-0.974;2023-04-21T08:16:36;99705.78;;;7.27;100.00
51439;BME280;38816;51.142;-0.974;2023-04-21T08:19:02;99717.81;;;7.31;100.00
51439;BME280;38816;51.142;-0.974;2023-04-21T08:21:28;99713.47;;;7.29;100.00
51439;BME280;38816;51.142;-0.974;2023-04-21T08:23:53;99708.25;;;7.23;100.00
51439;BME280;38816;51.142;-0.974;2023-04-21T08:26:21;99693.69;;;7.20;100.00
51439;BME280;38816;51.142;-0.974;2023-04-21T08:28:46;99705.91;;;7.33;100.00
51439;BME280;38816;51.142;-0.974;2023-04-21T08:31:14;99688.16;;;7.41;100.00
51439;BME280;38816;51.142;-0.974;2023-04-21T08:33:39;99689.19;;;7.48;100.00
51439;BME280;38816;51.142;-0.974;2023-04-21T08:36:05;99689.34;;;7.57;100.00
51439;BME280;38816;51.142;-0.974;2023-04-21T08:38:32;99690.31;;;7.62;100.00
51439;BME280;38816;51.142;-0.974;2023-04-21T08:40:58;99678.22;;;7.56;100.00
51439;BME280;38816;51.142;-0.974;2023-04-21T08:43:24;99678.97;;;7.51;100.00
51439;BME280;38816;51.142;-0.974;2023-04-21T08:45:50;99666.97;;;7.47;100.00
51439;BME280;38816;51.142;-0.974;2023-04-21T08:48:18;99671.56;;;7.65;100.00
51439;BME280;38816;51.142;-0.974;2023-04-21T08:50:48;99668.47;;;7.79;100.00
51439;BME280;38816;51.142;-0.974;2023-04-21T08:53:13;99665.06;;;7.82;100.00
51439;BME280;38816;51.142;-0.974;2023-04-21T08:55:40;99666.16;;;7.93;100.00
51439;BME280;38816;51.142;-0.974;2023-04-21T08:58:06;99672.47;;;8.13;100.00
51439;BME280;38816;51.142;-0.974;2023-04-21T09:00:36;99680.34;;;8.24;100.00
51439;BME280;38816;51.142;-0.974;2023-04-21T09:03:02;99671.03;;;8.31;100.00
51439;BME280;38816;51.142;-0.974;2023-04-21T09:05:33;99678.97;;;8.45;100.00
51439;BME280;38816;51.142;-0.974;2023-04-21T09:08:12;99670.50;;;8.49;100.00
51439;BME280;38816;51.142;-0.974;2023-04-21T09:10:47;99680.19;;;8.67;100.00
51439;BME280;38816;51.142;-0.974;2023-04-21T09:13:13;99677.75;;;8.74;100.00
51439;BME280;38816;51.142;-0.974;2023-04-21T09:15:42;99681.16;;;8.76;100.00
51439;BME280;38816;51.142;-0.974;2023-04-21T09:18:16;99659.69;;;8.68;100.00
51439;BME280;38816;51.142;-0.974;2023-04-21T09:20:43;99671.91;;;8.86;100.00
51439;BME280;38816;51.142;-0.974;2023-04-21T09:23:09;99675.38;;;8.91;100.00
51439;BME280;38816;51.142;-0.974;2023-04-21T09:25:38;99669.47;;;8.94;100.00
51439;BME280;38816;51.142;-0.974;2023-04-21T09:28:22;99674.75;;;9.06;100.00
51439;BME280;38816;51.142;-0.974;2023-04-21T09:30:47;99669.75;;;9.18;100.00
51439;BME280;38816;51.142;-0.974;2023-04-21T09:33:19;99674.16;;;9.25;100.00
51439;BME280;38816;51.142;-0.974;2023-04-21T09:35:44;99662.06;;;9.17;100.00
51439;BME280;38816;51.142;-0.974;2023-04-21T09:38:11;99673.22;;;9.20;100.00
51439;BME280;38816;51.142;-0.974;2023-04-21T09:40:36;99665.53;;;9.20;100.00
51439;BME280;38816;51.142;-0.974;2023-04-21T09:43:02;99669.97;;;9.33;100.00
51439;BME280;38816;51.142;-0.974;2023-04-21T09:45:28;99655.56;;;9.43;100.00
51439;BME280;38816;51.142;-0.974;2023-04-21T09:47:56;99668.44;;;9.48;100.00
51439;BME280;38816;51.142;-0.974;2023-04-21T09:50:22;99657.16;;;9.33;100.00
51439;BME280;38816;51.142;-0.974;2023-04-21T09:52:50;99668.97;;;9.22;100.00
51439;BME280;38816;51.142;-0.974;2023-04-21T09:55:17;99662.69;;;9.00;100.00
51439;BME280;38816;51.142;-0.974;2023-04-21T09:57:45;99662.50;;;8.86;100.00
51439;BME280;38816;51.142;-0.974;2023-04-21T10:00:13;99664.91;;;8.74;100.00
51439;BME280;38816;51.142;-0.974;2023-04-21T10:02:49;99657.91;;;8.64;100.00
51439;BME280;38816;51.142;-0.974;2023-04-21T10:05:15;99668.78;;;8.48;100.00
51439;BME280;38816;51.142;-0.974;2023-04-21T10:07:43;99665.91;;;8.29;100.00
51439;BME280;38816;51.142;-0.974;2023-04-21T10:10:18;99655.53;;;8.22;100.00
51439;BME280;38816;51.142;-0.974;2023-04-21T10:12:45;99660.56;;;8.16;100.00
51439;BME280;38816;51.142;-0.974;2023-04-21T10:18:19;99663.19;;;8.20;100.00
51439;BME280;38816;51.142;-0.974;2023-04-21T10:21:08;99651.22;;;8.19;100.00
51439;BME280;38816;51.142;-0.974;2023-04-21T10:31:36;99655.69;;;8.32;100.00
51439;BME280;38816;51.142;-0.974;2023-04-21T10:42:18;99645.31;;;8.23;100.00
51439;BME280;38816;51.142;-0.974;2023-04-21T10:47:28;99651.25;;;8.21;100.00
51439;BME280;38816;51.142;-0.974;2023-04-21T10:49:55;99656.19;;;8.10;100.00
51439;BME280;38816;51.142;-0.974;2023-04-21T10:52:21;99655.94;;;7.96;100.00
51439;BME280;38816;51.142;-0.974;2023-04-21T10:57:20;99660.97;;;7.92;100.00
51439;BME280;38816;51.142;-0.974;2023-04-21T10:59:46;99653.22;;;7.85;100.00
51439;BME280;38816;51.142;-0.974;2023-04-21T11:02:14;99661.03;;;7.95;100.00
51439;BME280;38816;51.142;-0.974;2023-04-21T11:04:40;99649.09;;;7.94;100.00
51439;BME280;38816;51.142;-0.974;2023-04-21T11:07:13;99651.81;;;8.03;100.00
51439;BME280;38816;51.142;-0.974;2023-04-21T11:09:40;99651.13;;;8.13;100.00
51439;BME280;38816;51.142;-0.974;2023-04-21T11:12:07;99656.25;;;8.13;100.00
51439;BME280;38816;51.142;-0.974;2023-04-21T11:14:34;99655.31;;;8.08;100.00
51439;BME280;38816;51.142;-0.974;2023-04-21T11:17:01;99662.81;;;7.99;100.00
51439;BME280;38816;51.142;-0.974;2023-04-21T11:19:26;99645.75;;;7.98;100.00
51439;BME280;38816;51.142;-0.974;2023-04-21T11:21:52;99647.00;;;8.23;100.00
51439;BME280;38816;51.142;-0.974;2023-04-21T11:24:20;99645.75;;;8.49;100.00
51439;BME280;38816;51.142;-0.974;2023-04-21T11:26:46;99653.88;;;8.78;100.00
51439;BME280;38816;51.142;-0.974;2023-04-21T11:29:12;99655.66;;;8.85;100.00
51439;BME280;38816;51.142;-0.974;2023-04-21T11:31:40;99645.53;;;8.95;100.00
51439;BME280;38816;51.142;-0.974;2023-04-21T11:34:06;99645.41;;;8.85;100.00
51439;BME280;38816;51.142;-0.974;2023-04-21T11:36:37;99646.25;;;8.84;100.00
51439;BME280;38816;51.142;-0.974;2023-04-21T11:39:08;99649.63;;;8.82;100.00
51439;BME280;38816;51.142;-0.974;2023-04-21T11:41:41;99642.78;;;8.79;100.00
51439;BME280;38816;51.142;-0.974;2023-04-21T11:44:07;99650.66;;;8.95;100.00
51439;BME280;38816;51.142;-0.974;2023-04-21T11:46:32;99647.25;;;8.96;100.00
51439;BME280;38816;51.142;-0.974;2023-04-21T11:51:35;99631.34;;;9.23;100.00
51439;BME280;38816;51.142;-0.974;2023-04-21T11:54:03;99630.91;;;9.57;100.00
51439;BME280;38816;51.142;-0.974;2023-04-21T11:56:29;99632.06;;;9.88;100.00
51439;BME280;38816;51.142;-0.974;2023-04-21T11:58:54;99637.44;;;10.16;100.00
51439;BME280;38816;51.142;-0.974;2023-04-21T12:01:20;99641.88;;;10.29;100.00
51439;BME280;38816;51.142;-0.974;2023-04-21T12:03:55;99638.50;;;10.39;100.00
51439;BME280;38816;51.142;-0.974;2023-04-21T12:06:25;99637.69;;;10.41;100.00
51439;BME280;38816;51.142;-0.974;2023-04-21T12:08:55;99638.41;;;10.24;100.00
51439;BME280;38816;51.142;-0.974;2023-04-21T12:11:22;99638.22;;;10.06;100.00
51439;BME280;38816;51.142;-0.974;2023-04-21T12:13:48;99630.19;;;9.72;100.00
51439;BME280;38816;51.142;-0.974;2023-04-21T12:16:14;99641.13;;;9.53;100.00
51439;BME280;38816;51.142;-0.974;2023-04-21T12:18:41;99636.72;;;9.41;100.00
51439;BME280;38816;51.142;-0.974;2023-04-21T12:21:06;99650.25;;;9.28;100.00
51439;BME280;38816;51.142;-0.974;2023-04-21T12:23:32;99634.53;;;9.02;100.00
51439;BME280;38816;51.142;-0.974;2023-04-21T12:25:57;99647.31;;;8.99;100.00
51439;BME280;38816;51.142;-0.974;2023-04-21T12:28:23;99642.19;;;8.99;100.00
51439;BME280;38816;51.142;-0.974;2023-04-21T12:30:48;99636.19;;;9.00;100.00
51439;BME280;38816;51.142;-0.974;2023-04-21T12:33:13;99643.16;;;9.07;100.00
51439;BME280;38816;51.142;-0.974;2023-04-21T12:35:39;99643.16;;;9.07;100.00
51439;BME280;38816;51.142;-0.974;2023-04-21T12:38:05;99632.94;;;9.11;100.00
51439;BME280;38816;51.142;-0.974;2023-04-21T12:40:31;99629.63;;;9.19;100.00
51439;BME280;38816;51.142;-0.974;2023-04-21T12:42:56;99641.66;;;9.26;100.00
51439;BME280;38816;51.142;-0.974;2023-04-21T12:45:21;99633.06;;;9.22;100.00
51439;BME280;38816;51.142;-0.974;2023-04-21T12:47:47;99618.41;;;9.12;100.00
51439;BME280;38816;51.142;-0.974;2023-04-21T12:50:12;99626.22;;;9.21;100.00
51439;BME280;38816;51.142;-0.974;2023-04-21T12:52:38;99632.47;;;9.42;100.00
51439;BME280;38816;51.142;-0.974;2023-04-21T12:55:04;99631.75;;;9.56;100.00
51439;BME280;38816;51.142;-0.974;2023-04-21T12:57:30;99616.47;;;9.67;100.00
51439;BME280;38816;51.142;-0.974;2023-04-21T12:59:56;99639.81;;;9.92;100.00
51439;BME280;38816;51.142;-0.974;2023-04-21T13:02:21;99613.38;;;10.03;100.00
51439;BME280;38816;51.142;-0.974;2023-04-21T13:04:47;99624.81;;;10.37;100.00
51439;BME280;38816;51.142;-0.974;2023-04-21T13:07:12;99632.53;;;10.44;98.32
51439;BME280;38816;51.142;-0.974;2023-04-21T13:09:40;99628.31;;;10.52;99.80
51439;BME280;38816;51.142;-0.974;2023-04-21T13:12:05;99623.28;;;10.67;99.82
51439;BME280;38816;51.142;-0.974;2023-04-21T13:14:31;99611.31;;;10.71;96.36